createdAt,value
2022-09-26T00:01:07.304Z,100110.41
2022-09-26T00:03:35.683Z,100124.44
2022-09-26T00:06:04.153Z,100123.56
2022-09-26T00:08:34.626Z,100120.00
2022-09-26T00:11:07.697Z,100120.06
2022-09-26T00:13:38.033Z,100121.78
2022-09-26T00:16:06.579Z,100113.03
2022-09-26T00:18:35.114Z,100113.91
2022-09-26T00:21:07.305Z,100110.41
2022-09-26T00:23:37.010Z,100095.50
2022-09-26T00:26:05.811Z,100097.28
2022-09-26T00:28:34.407Z,100093.78
2022-09-26T00:31:05.369Z,100090.31
2022-09-26T00:33:33.774Z,100078.00
2022-09-26T00:36:02.193Z,100070.13
2022-09-26T00:38:30.363Z,100073.66
2022-09-26T00:40:59.862Z,100005.00
2022-09-26T00:43:33.740Z,100042.84
2022-09-26T00:46:05.981Z,100055.19
2022-09-26T00:48:37.227Z,100059.66
2022-09-26T00:51:05.781Z,100040.31
2022-09-26T00:53:39.005Z,100050.06
2022-09-26T00:56:13.146Z,100049.19
2022-09-26T00:58:47.167Z,100041.34
2022-09-26T01:01:15.922Z,100043.09
2022-09-26T01:03:46.569Z,100040.41
2022-09-26T01:06:15.651Z,100050.88
2022-09-26T01:08:49.067Z,100046.47
2022-09-26T01:11:19.233Z,100043.88
2022-09-26T01:13:47.700Z,100017.47
2022-09-26T01:16:15.694Z,100038.66
2022-09-26T01:18:44.677Z,100048.31
2022-09-26T01:21:41.973Z,100041.34
2022-09-26T01:24:41.900Z,100041.41
2022-09-26T01:27:30.101Z,99985.91
2022-09-26T01:30:18.337Z,100044.91
2022-09-26T01:33:18.200Z,100038.78
2022-09-26T01:35:58.858Z,100027.34
2022-09-26T01:38:37.833Z,100038.78
2022-09-26T01:41:17.010Z,100021.19
2022-09-26T01:43:52.543Z,100025.72
2022-09-26T01:46:29.818Z,100031.88
2022-09-26T01:49:05.051Z,100023.97
2022-09-26T01:51:42.436Z,100011.66
2022-09-26T01:54:15.109Z,100024.88
2022-09-26T01:56:44.560Z,100020.44
2022-09-26T01:59:18.887Z,100021.41
2022-09-26T02:01:52.219Z,100024.91
2022-09-26T02:04:25.288Z,100028.41
2022-09-26T02:06:56.265Z,99901.63
2022-09-26T02:09:28.306Z,100001.19
2022-09-26T02:12:00.701Z,100005.63
2022-09-26T02:14:33.058Z,100007.38
2022-09-26T02:17:06.852Z,100003.84
2022-09-26T02:19:40.559Z,100007.34
2022-09-26T02:22:08.674Z,100002.03
2022-09-26T02:24:36.778Z,100002.06
2022-09-26T02:27:06.852Z,100000.28
2022-09-26T02:29:35.378Z,99982.75
2022-09-26T02:32:12.832Z,99962.47
2022-09-26T02:34:42.507Z,99977.56
2022-09-26T02:37:13.471Z,99976.66
2022-09-26T02:39:42.805Z,99992.44
2022-09-26T02:42:21.897Z,99981.00
2022-09-26T02:45:05.445Z,99979.31
2022-09-26T02:47:51.449Z,99973.19
2022-09-26T02:50:39.946Z,99972.31
2022-09-26T02:53:18.875Z,99962.69
2022-09-26T02:55:52.874Z,99965.28
2022-09-26T02:58:36.505Z,99963.53
2022-09-26T03:01:11.887Z,99955.63
2022-09-26T03:03:46.077Z,99953.88
2022-09-26T03:06:18.358Z,99956.50
2022-09-26T03:08:49.381Z,99955.63
2022-09-26T03:11:21.714Z,99955.63
2022-09-26T03:13:53.410Z,99939.03
2022-09-26T03:16:23.792Z,99939.03
2022-09-26T03:18:56.615Z,99937.25
2022-09-26T03:21:25.075Z,99942.47
2022-09-26T03:23:52.922Z,99934.56
2022-09-26T03:26:24.756Z,99937.25
2022-09-26T03:28:53.888Z,99865.06
2022-09-26T03:31:22.329Z,99924.13
2022-09-26T03:33:50.435Z,99923.25
2022-09-26T03:36:20.260Z,99926.72
2022-09-26T03:38:48.107Z,99918.88
2022-09-26T03:41:16.105Z,99925.88
2022-09-26T03:43:44.341Z,99917.97
2022-09-26T03:46:13.171Z,99918.84
2022-09-26T03:48:41.188Z,99917.06
2022-09-26T03:51:11.058Z,99913.56
2022-09-26T03:53:43.423Z,99910.94
2022-09-26T03:56:12.993Z,99907.41
2022-09-26T03:58:40.906Z,99904.78
2022-09-26T04:01:11.830Z,99900.38
2022-09-26T04:03:45.171Z,99906.53
2022-09-26T04:06:20.222Z,99910.88
2022-09-26T04:08:52.367Z,99911.72
2022-09-26T04:11:22.235Z,99913.44
2022-09-26T04:13:52.765Z,99909.06
2022-09-26T04:16:22.858Z,99909.91
2022-09-26T04:18:51.449Z,99896.72
2022-09-26T04:21:19.294Z,99896.78
2022-09-26T04:23:47.159Z,99903.75
2022-09-26T04:26:22.907Z,99894.16
2022-09-26T04:28:55.005Z,99897.66
2022-09-26T04:31:24.383Z,99906.41
2022-09-26T04:33:52.412Z,99904.66
2022-09-26T04:36:20.307Z,99900.28
2022-09-26T04:38:49.113Z,99892.38
2022-09-26T04:41:20.535Z,99880.94
2022-09-26T04:43:49.021Z,99875.69
2022-09-26T04:46:22.234Z,99867.75
2022-09-26T04:48:52.971Z,99877.47
2022-09-26T04:51:23.246Z,99880.19
2022-09-26T04:53:51.976Z,99880.09
2022-09-26T04:56:23.405Z,99883.63
2022-09-26T04:58:51.719Z,99881.84
2022-09-26T05:01:21.386Z,99886.22
2022-09-26T05:03:49.659Z,99885.31
2022-09-26T05:06:18.605Z,99884.41
2022-09-26T05:08:48.533Z,99831.63
2022-09-26T05:11:18.797Z,99859.03
2022-09-26T05:13:53.677Z,99858.16
2022-09-26T05:16:22.816Z,99816.91
2022-09-26T05:18:51.784Z,99841.56
2022-09-26T05:21:20.151Z,99853.06
2022-09-26T05:24:02.095Z,99859.22
2022-09-26T05:26:39.380Z,99854.78
2022-09-26T05:29:09.523Z,99855.69
2022-09-26T05:31:38.442Z,99861.91
2022-09-26T05:34:07.685Z,99864.56
2022-09-26T05:36:35.989Z,99850.53
2022-09-26T05:39:04.605Z,99863.75
2022-09-26T05:41:33.785Z,99855.00
2022-09-26T05:44:02.118Z,99855.03
2022-09-26T05:46:34.362Z,99849.81
2022-09-26T05:49:02.268Z,99850.75
2022-09-26T05:51:30.048Z,99842.03
2022-09-26T05:53:58.221Z,99835.97
2022-09-26T05:56:26.151Z,99833.41
2022-09-26T05:58:55.061Z,99832.56
2022-09-26T06:01:23.214Z,99803.56
2022-09-26T06:03:52.454Z,99837.00
2022-09-26T06:06:21.369Z,99832.66
2022-09-26T06:08:50.206Z,99773.72
2022-09-26T06:11:20.922Z,99850.19
2022-09-26T06:13:48.797Z,99857.16
2022-09-26T06:16:19.544Z,99716.50
2022-09-26T06:18:49.184Z,99840.47
2022-09-26T06:21:20.267Z,99867.72
2022-09-26T06:23:48.611Z,99836.91
2022-09-26T06:26:20.538Z,99832.53
2022-09-26T06:28:50.089Z,99782.41
2022-09-26T06:31:20.007Z,99878.25
2022-09-26T06:33:51.657Z,99881.78
2022-09-26T06:36:22.488Z,99848.34
2022-09-26T06:38:51.057Z,99859.78
2022-09-26T06:41:19.540Z,99839.53
2022-09-26T06:43:49.186Z,99850.06
2022-09-26T06:46:17.674Z,99867.63
2022-09-26T06:48:45.796Z,99859.63
2022-09-26T06:51:15.330Z,99861.28
2022-09-26T06:53:46.015Z,99872.66
2022-09-26T06:56:15.001Z,99881.31
2022-09-26T06:58:43.068Z,99877.75
2022-09-26T07:01:11.882Z,99869.81
2022-09-26T07:03:45.163Z,99878.53
2022-09-26T07:06:14.070Z,99883.75
2022-09-26T07:11:42.010Z,99874.03
2022-09-26T07:14:20.340Z,99764.94
2022-09-26T07:16:49.869Z,99874.81
2022-09-26T07:19:18.674Z,99866.09
2022-09-26T07:21:47.024Z,99839.72
2022-09-26T07:24:15.156Z,99863.47
2022-09-26T07:26:45.027Z,99859.97
2022-09-26T07:29:12.928Z,99876.63
2022-09-26T07:31:40.947Z,99850.28
2022-09-26T07:34:09.040Z,99872.28
2022-09-26T07:36:37.459Z,99871.38
2022-09-26T07:39:05.516Z,99826.59
2022-09-26T07:41:33.522Z,99848.69
2022-09-26T07:47:08.535Z,99757.31
2022-09-26T07:49:53.893Z,99859.28
2022-09-26T07:52:22.700Z,99826.72
2022-09-26T07:54:51.388Z,99866.25
2022-09-26T07:57:19.511Z,99853.97
2022-09-26T07:59:50.593Z,99862.81
2022-09-26T08:02:25.899Z,99847.03
2022-09-26T08:05:00.234Z,99870.81
2022-09-26T08:07:29.911Z,99869.94
2022-09-26T08:09:58.825Z,99805.78
2022-09-26T08:12:27.975Z,99848.00
2022-09-26T08:14:57.246Z,99845.38
2022-09-26T08:17:25.213Z,99863.00
2022-09-26T08:19:53.027Z,99859.53
2022-09-26T08:22:20.982Z,99856.03
2022-09-26T08:24:50.409Z,99848.16
2022-09-26T08:27:18.430Z,99844.75
2022-09-26T08:29:48.748Z,99816.66
2022-09-26T08:32:18.939Z,99850.16
2022-09-26T08:34:47.713Z,99860.72
2022-09-26T08:37:16.125Z,99859.91
2022-09-26T08:39:44.110Z,99853.84
2022-09-26T08:42:34.718Z,99853.13
2022-09-26T08:45:55.409Z,99847.97
2022-09-26T08:48:42.636Z,99772.47
2022-09-26T08:51:19.345Z,99846.38
2022-09-26T08:53:54.222Z,99829.69
2022-09-26T08:56:40.393Z,99842.94
2022-09-26T08:59:15.149Z,99788.50
2022-09-26T09:01:46.775Z,99821.88
2022-09-26T09:04:22.037Z,99849.13
2022-09-26T09:06:56.125Z,99821.94
2022-09-26T09:09:24.229Z,99812.31
2022-09-26T09:12:06.280Z,99836.06
2022-09-26T09:15:13.747Z,99841.31
2022-09-26T09:17:50.789Z,99831.66
2022-09-26T09:20:29.785Z,99837.81
2022-09-26T09:23:20.508Z,99816.78
2022-09-26T09:25:55.303Z,99835.19
2022-09-26T09:28:36.989Z,99837.81
2022-09-26T09:31:10.261Z,99833.44
2022-09-26T09:33:41.498Z,99829.91
2022-09-26T09:36:15.134Z,99834.28
2022-09-26T09:38:46.994Z,99813.25
2022-09-26T09:41:19.100Z,99832.56
2022-09-26T09:43:49.538Z,99823.78
2022-09-26T09:46:23.209Z,99820.25
2022-09-26T09:48:54.774Z,99816.75
2022-09-26T09:51:39.292Z,99815.91
2022-09-26T09:54:25.166Z,99737.78
2022-09-26T09:57:09.929Z,99807.13
2022-09-26T09:59:57.992Z,99743.97
2022-09-26T10:02:37.606Z,99798.41
2022-09-26T10:05:24.423Z,99734.31
2022-09-26T10:07:58.190Z,99801.03
2022-09-26T10:10:35.896Z,99769.44
2022-09-26T10:13:06.280Z,99808.91
2022-09-26T10:15:36.965Z,99811.56
2022-09-26T10:18:24.067Z,99753.63
2022-09-26T10:20:55.682Z,99712.41
2022-09-26T10:23:32.903Z,99801.03
2022-09-26T10:26:03.679Z,99797.50
2022-09-26T10:28:35.922Z,99803.66
2022-09-26T10:31:07.567Z,99748.34
2022-09-26T10:33:37.217Z,99794.00
2022-09-26T10:36:18.365Z,99779.09
2022-09-26T10:39:11.138Z,99804.53
2022-09-26T10:41:45.180Z,99794.00
2022-09-26T10:44:24.585Z,99794.88
2022-09-26T10:46:56.538Z,99794.88
2022-09-26T10:49:31.361Z,99722.06
2022-09-26T10:52:08.407Z,99729.94
2022-09-26T10:54:42.504Z,99788.75
2022-09-26T10:57:24.346Z,99783.47
2022-09-26T10:59:54.393Z,99721.16
2022-09-26T11:02:25.394Z,99783.47
2022-09-26T11:05:15.187Z,99781.72
2022-09-26T11:07:47.468Z,99767.69
2022-09-26T11:10:24.881Z,99755.38
2022-09-26T11:13:02.408Z,99708.88
2022-09-26T11:15:31.236Z,99772.06
2022-09-26T11:17:59.234Z,99709.75
2022-09-26T11:20:43.796Z,99747.50
2022-09-26T11:23:20.903Z,99769.44
2022-09-26T11:25:58.301Z,99751.88
2022-09-26T11:28:31.497Z,99751.00
2022-09-26T11:31:06.252Z,99758.91
2022-09-26T11:33:35.379Z,99754.53
2022-09-26T11:36:18.865Z,99689.59
2022-09-26T11:38:48.688Z,99751.88
2022-09-26T11:41:39.022Z,99738.69
2022-09-26T11:44:35.685Z,99741.31
2022-09-26T11:47:30.743Z,99746.59
2022-09-26T11:50:23.672Z,99741.31
2022-09-26T11:53:02.247Z,99708.00
2022-09-26T11:55:38.817Z,99742.22
2022-09-26T11:58:17.954Z,99741.34
2022-09-26T12:00:56.954Z,99744.88
2022-09-26T12:03:57.288Z,99715.88
2022-09-26T12:06:33.665Z,99713.28
2022-09-26T12:09:25.372Z,99711.50
2022-09-26T12:12:04.131Z,99725.50
2022-09-26T12:14:45.939Z,99701.72
2022-09-26T12:17:21.949Z,99669.16
2022-09-26T12:19:59.134Z,99723.38
2022-09-26T12:22:36.165Z,99722.41
2022-09-26T12:25:42.066Z,99722.38
2022-09-26T12:28:25.614Z,99700.47
2022-09-26T12:31:08.949Z,99678.56
2022-09-26T12:33:55.422Z,99696.16
2022-09-26T12:36:39.958Z,99707.66
2022-09-26T12:39:22.302Z,99725.22
2022-09-26T12:42:05.129Z,99711.25
2022-09-26T12:44:47.640Z,99658.72
2022-09-26T12:47:34.959Z,99700.81
2022-09-26T12:50:17.146Z,99706.94
2022-09-26T12:53:15.874Z,99714.00
2022-09-26T12:55:50.137Z,99710.53
2022-09-26T12:58:33.125Z,99711.38
2022-09-26T13:01:30.102Z,99699.97
2022-09-26T13:04:18.395Z,99719.25
2022-09-26T13:07:18.730Z,99711.34
2022-09-26T13:10:06.809Z,99714.00
2022-09-26T13:12:51.169Z,99711.34
2022-09-26T13:15:27.320Z,99713.09
2022-09-26T13:17:59.485Z,99683.28
2022-09-26T13:20:38.125Z,99684.16
2022-09-26T13:23:12.326Z,99709.63
2022-09-26T13:25:49.767Z,99691.19
2022-09-26T13:28:21.527Z,99693.81
2022-09-26T13:30:54.933Z,99703.44
2022-09-26T13:33:29.362Z,99706.06
2022-09-26T13:36:01.502Z,99699.88
2022-09-26T13:38:41.403Z,99665.69
2022-09-26T13:41:24.325Z,99706.00
2022-09-26T13:44:03.614Z,99698.06
2022-09-26T13:46:44.265Z,99698.00
2022-09-26T13:49:27.761Z,99665.53
2022-09-26T13:52:14.038Z,99699.69
2022-09-26T13:54:56.373Z,99667.22
2022-09-26T13:57:40.155Z,99689.88
2022-09-26T14:00:40.870Z,99679.31
2022-09-26T14:03:43.372Z,99691.56
2022-09-26T14:06:32.024Z,99693.44
2022-09-26T14:09:25.212Z,99695.25
2022-09-26T14:12:32.354Z,99697.94
2022-09-26T14:15:21.184Z,99702.31
2022-09-26T14:18:15.431Z,99654.97
2022-09-26T14:21:05.242Z,99664.59
2022-09-26T14:23:40.048Z,99695.31
2022-09-26T14:26:12.503Z,99693.59
2022-09-26T14:28:47.717Z,99674.31
2022-09-26T14:31:42.787Z,99698.00
2022-09-26T14:34:20.725Z,99689.25
2022-09-26T14:36:49.925Z,99677.03
2022-09-26T14:39:41.025Z,99691.06
2022-09-26T14:42:20.829Z,99698.13
2022-09-26T14:44:59.682Z,99694.59
2022-09-26T14:47:31.734Z,99695.44
2022-09-26T14:50:05.628Z,99672.63
2022-09-26T14:52:35.499Z,99676.94
2022-09-26T14:55:07.606Z,99698.88
2022-09-26T14:57:39.024Z,99693.56
2022-09-26T15:00:40.483Z,99704.94
2022-09-26T15:03:15.738Z,99704.97
2022-09-26T15:05:45.089Z,99682.19
2022-09-26T15:08:27.400Z,99657.75
2022-09-26T15:10:57.309Z,99692.84
2022-09-26T15:13:34.199Z,99708.66
2022-09-26T15:16:24.499Z,99707.78
2022-09-26T15:18:56.723Z,99692.88
2022-09-26T15:21:33.938Z,99707.81
2022-09-26T15:24:05.963Z,99706.06
2022-09-26T15:26:36.869Z,99708.75
2022-09-26T15:29:10.104Z,99672.81
2022-09-26T15:31:40.798Z,99685.97
2022-09-26T15:34:16.447Z,99705.28
2022-09-26T15:36:45.956Z,99648.31
2022-09-26T15:39:38.937Z,99701.81
2022-09-26T15:42:54.418Z,99700.06
2022-09-26T15:45:30.413Z,99691.31
2022-09-26T15:48:00.081Z,99706.22
2022-09-26T15:50:33.034Z,99700.09
2022-09-26T15:53:06.901Z,99702.75
2022-09-26T15:55:38.903Z,99698.34
2022-09-26T15:58:08.821Z,99712.41
2022-09-26T16:00:47.292Z,99702.75
2022-09-26T16:03:55.752Z,99707.13
2022-09-26T16:06:30.060Z,99708.03
2022-09-26T16:09:10.295Z,99714.13
2022-09-26T16:11:47.704Z,99712.38
2022-09-26T16:14:26.889Z,99707.16
2022-09-26T16:17:02.709Z,99723.81
2022-09-26T16:19:35.036Z,99708.03
2022-09-26T16:22:36.530Z,99723.81
2022-09-26T16:25:37.090Z,99730.81
2022-09-26T16:28:23.430Z,99709.75
2022-09-26T16:31:11.107Z,99717.66
2022-09-26T16:33:41.575Z,99720.28
2022-09-26T16:36:18.732Z,99729.03
2022-09-26T16:38:53.097Z,99731.66
2022-09-26T16:41:56.422Z,99731.66
2022-09-26T16:44:27.351Z,99732.53
2022-09-26T16:46:58.940Z,99721.09
2022-09-26T16:49:40.031Z,99727.25
2022-09-26T16:52:29.894Z,99716.69
2022-09-26T16:54:59.638Z,99738.63
2022-09-26T16:57:30.148Z,99727.19
2022-09-26T17:00:15.224Z,99715.75
2022-09-26T17:02:43.577Z,99742.09
2022-09-26T17:05:18.800Z,99750.84
2022-09-26T17:07:47.718Z,99740.34
2022-09-26T17:10:16.481Z,99742.97
2022-09-26T17:12:53.138Z,99742.97
2022-09-26T17:15:28.564Z,99743.84
2022-09-26T17:17:57.289Z,99753.47
2022-09-26T17:20:26.876Z,99746.47
2022-09-26T17:22:55.766Z,99751.72
2022-09-26T17:25:25.313Z,99757.84
2022-09-26T17:27:57.714Z,99761.34
2022-09-26T17:30:25.636Z,99765.75
2022-09-26T17:32:54.909Z,99750.81
2022-09-26T17:35:32.697Z,99758.72
2022-09-26T17:38:01.512Z,99734.13
2022-09-26T17:40:31.209Z,99772.75
2022-09-26T17:43:04.757Z,99771.00
2022-09-26T17:45:35.284Z,99766.59
2022-09-26T17:48:06.986Z,99773.63
2022-09-26T17:50:36.976Z,99761.34
2022-09-26T17:53:07.912Z,99775.38
2022-09-26T17:55:35.906Z,99778.00
2022-09-26T17:58:09.566Z,99769.22
2022-09-26T18:00:38.874Z,99778.88
2022-09-26T18:03:08.633Z,99781.50
2022-09-26T18:05:39.697Z,99774.47
2022-09-26T18:08:15.322Z,99783.25
2022-09-26T18:10:49.762Z,99781.50
2022-09-26T18:13:26.592Z,99765.66
2022-09-26T18:15:55.611Z,99766.56
2022-09-26T18:18:25.118Z,99732.31
2022-09-26T18:20:57.673Z,99778.84
2022-09-26T18:23:29.169Z,99781.47
2022-09-26T18:25:59.562Z,99776.19
2022-09-26T18:28:27.918Z,99778.84
2022-09-26T18:30:59.191Z,99727.00
2022-09-26T18:33:29.257Z,99777.94
2022-09-26T18:35:58.898Z,99791.06
2022-09-26T18:38:26.751Z,99782.31
2022-09-26T18:40:58.351Z,99778.78
2022-09-26T18:43:31.706Z,99781.44
2022-09-26T18:46:00.167Z,99781.44
2022-09-26T18:48:31.674Z,99788.44
2022-09-26T18:51:01.752Z,99693.53
2022-09-26T18:53:37.057Z,99792.81
2022-09-26T18:56:22.683Z,99786.63
2022-09-26T18:58:50.512Z,99793.66
2022-09-26T19:01:26.907Z,99799.81
2022-09-26T19:03:55.633Z,99796.31
2022-09-26T19:06:29.867Z,99799.84
2022-09-26T19:09:00.285Z,99784.00
2022-09-26T19:11:32.038Z,99794.56
2022-09-26T19:14:03.173Z,99740.06
2022-09-26T19:16:31.081Z,99796.28
2022-09-26T19:18:59.336Z,99797.16
2022-09-26T19:21:32.257Z,99791.84
2022-09-26T19:24:05.238Z,99808.50
2022-09-26T19:26:37.638Z,99795.38
2022-09-26T19:29:11.888Z,99721.53
2022-09-26T19:31:40.211Z,99800.63
2022-09-26T19:34:10.535Z,99804.13
2022-09-26T19:36:39.733Z,99798.84
2022-09-26T19:39:11.595Z,99798.84
2022-09-26T19:41:39.768Z,99807.59
2022-09-26T19:44:08.362Z,99770.63
2022-09-26T19:46:39.018Z,99791.75
2022-09-26T19:49:07.886Z,99753.06
2022-09-26T19:51:40.914Z,99793.44
2022-09-26T19:54:15.625Z,99804.00
2022-09-26T19:56:44.350Z,99812.75
2022-09-26T19:59:12.844Z,99812.75
2022-09-26T20:01:42.388Z,99812.72
2022-09-26T20:04:16.048Z,99823.19
2022-09-26T20:06:45.482Z,99819.66
2022-09-26T20:09:19.419Z,99820.53
2022-09-26T20:11:47.518Z,99807.38
2022-09-26T20:14:27.427Z,99818.78
2022-09-26T20:16:58.427Z,99792.41
2022-09-26T20:19:33.359Z,99828.38
2022-09-26T20:22:05.391Z,99818.75
2022-09-26T20:24:34.712Z,99820.50
2022-09-26T20:27:04.601Z,99809.94
2022-09-26T20:29:53.194Z,99827.50
2022-09-26T20:32:21.133Z,99825.72
2022-09-26T20:34:49.557Z,99826.59
2022-09-26T20:37:19.961Z,99829.25
2022-09-26T20:39:48.088Z,99820.44
2022-09-26T20:42:18.843Z,99838.00
2022-09-26T20:44:51.014Z,99838.00
2022-09-26T20:47:21.517Z,99816.06
2022-09-26T20:49:53.724Z,99837.16
2022-09-26T20:52:25.221Z,99838.88
2022-09-26T20:54:53.734Z,99845.94
2022-09-26T20:57:22.513Z,99855.59
2022-09-26T20:59:50.545Z,99846.84
2022-09-26T21:02:26.830Z,99842.44
2022-09-26T21:04:55.394Z,99848.59
2022-09-26T21:07:25.469Z,99823.13
2022-09-26T21:09:53.393Z,99846.03
2022-09-26T21:12:21.232Z,99848.66
2022-09-26T21:14:49.276Z,99853.97
2022-09-26T21:17:20.214Z,99858.34
2022-09-26T21:19:48.981Z,99845.19
2022-09-26T21:22:16.930Z,99852.22
2022-09-26T21:24:49.278Z,99859.25
2022-09-26T21:27:17.419Z,99860.13
2022-09-26T21:29:45.586Z,99862.75
2022-09-26T21:32:18.441Z,99857.50
2022-09-26T21:34:52.847Z,99853.09
2022-09-26T21:37:20.906Z,99844.31
2022-09-26T21:39:50.494Z,99853.97
2022-09-26T21:42:18.361Z,99845.19
2022-09-26T21:44:49.364Z,99851.28
2022-09-26T21:47:17.669Z,99830.13
2022-09-26T21:49:46.962Z,99848.56
2022-09-26T21:52:20.329Z,99850.28
2022-09-26T21:54:48.337Z,99862.50
2022-09-26T21:57:22.462Z,99837.03
2022-09-26T21:59:52.813Z,99851.06
2022-09-26T22:02:21.560Z,99851.06
2022-09-26T22:04:49.694Z,99862.41
2022-09-26T22:07:17.512Z,99850.13
2022-09-26T22:09:45.769Z,99847.47
2022-09-26T22:12:13.898Z,99843.97
2022-09-26T22:14:43.138Z,99847.44
2022-09-26T22:17:11.271Z,99822.78
2022-09-26T22:19:39.291Z,99850.88
2022-09-26T22:22:07.369Z,99820.97
2022-09-26T22:24:35.608Z,99845.53
2022-09-26T22:27:03.654Z,99851.69
2022-09-26T22:29:31.622Z,99852.53
2022-09-26T22:32:01.380Z,99850.75
2022-09-26T22:34:29.413Z,99857.78
2022-09-26T22:36:57.204Z,99858.66
2022-09-26T22:39:25.129Z,99864.69
2022-09-26T22:41:53.135Z,99854.28
2022-09-26T22:44:21.222Z,99827.03
2022-09-26T22:46:49.106Z,99853.41
2022-09-26T22:49:18.580Z,99840.19
2022-09-26T22:51:46.432Z,99850.75
2022-09-26T22:54:14.395Z,99843.72
2022-09-26T22:56:42.406Z,99850.75
2022-09-26T22:59:11.095Z,99848.97
2022-09-26T23:01:39.395Z,99849.81
2022-09-26T23:04:07.572Z,99847.19
2022-09-26T23:06:36.851Z,99853.25
2022-09-26T23:09:05.060Z,99856.69
2022-09-26T23:11:32.997Z,99846.13
2022-09-26T23:14:00.847Z,99855.81
2022-09-26T23:16:29.001Z,99856.72
2022-09-26T23:18:57.204Z,99852.38
2022-09-26T23:21:26.856Z,99857.63
2022-09-26T23:23:57.821Z,99859.41
2022-09-26T23:26:28.613Z,99860.31
2022-09-26T23:28:58.014Z,99865.59
2022-09-26T23:31:26.906Z,99855.94
2022-09-26T23:33:55.217Z,99834.84
2022-09-26T23:36:23.411Z,99866.47
2022-09-26T23:38:51.296Z,99862.09
2022-09-26T23:41:20.909Z,99865.56
2022-09-26T23:43:48.838Z,99841.78
2022-09-26T23:46:17.451Z,99862.06
2022-09-26T23:48:45.482Z,99852.38
2022-09-26T23:51:13.407Z,99866.44
2022-09-26T23:53:41.341Z,99869.94
2022-09-26T23:56:11.212Z,99864.72
2022-09-26T23:58:40.461Z,99744.28
